Time;durP1;ratioP1;P1;durP2;ratioP2;P2;SDS_P1;SDS_P2;PMS_P1;PMS_P2;Temp;Humidity;BMP_temperature;BMP_pressure;BME280_temperature;BME280_humidity;BME280_pressure;Samples;Min_cycle;Max_cycle;Signal;HPM_P1;HPM_P2
2023/12/15 00:00:21;;;;;;;;;;;6.60;99.90;;;;;;4972894;28;19926;-67
2023/12/15 00:02:49;;;;;;;;;;;6.60;99.90;;;;;;4972973;28;20004;-65
2023/12/15 00:05:18;;;;;;;;;;;6.60;99.90;;;;;;4972681;28;19934;-68
2023/12/15 00:07:46;;;;;;;;;;;6.70;99.90;;;;;;4981137;28;19976;-67
2023/12/15 00:10:14;;;;;;;;;;;6.60;99.90;;;;;;4976266;28;20305;-67
2023/12/15 00:12:41;;;;;;;;;;;6.70;99.90;;;;;;4978792;28;19934;-68
2023/12/15 00:15:10;;;;;;;;;;;6.70;99.90;;;;;;5007325;28;19979;-67
2023/12/15 00:17:37;;;;;;;;;;;6.60;99.90;;;;;;4985760;28;19926;-67
2023/12/15 00:20:07;;;;;;;;;;;6.50;99.90;;;;;;4972730;28;20491;-67
2023/12/15 00:22:36;;;;;;;;;;;6.20;99.90;;;;;;4972766;28;19926;-67
2023/12/15 00:25:04;;;;;;;;;;;6.00;99.90;;;;;;4972407;28;19926;-67
2023/12/15 00:27:32;;;;;;;;;;;5.90;99.90;;;;;;4980586;28;20415;-67
2023/12/15 00:29:59;;;;;;;;;;;5.90;99.90;;;;;;4972886;28;19926;-67
2023/12/15 00:32:27;;;;;;;;;;;5.80;99.90;;;;;;4972640;28;19934;-66
2023/12/15 00:34:55;;;;;;;;;;;5.60;99.90;;;;;;4979979;28;20016;-67
2023/12/15 00:37:23;;;;;;;;;;;5.50;99.90;;;;;;4972988;28;20026;-67
2023/12/15 00:39:52;;;;;;;;;;;5.40;99.90;;;;;;4972729;28;19926;-67
2023/12/15 00:42:20;;;;;;;;;;;5.50;99.90;;;;;;4972567;28;19991;-67
2023/12/15 00:44:47;;;;;;;;;;;5.80;99.90;;;;;;5003018;28;19925;-66
2023/12/15 00:47:15;;;;;;;;;;;5.90;99.90;;;;;;4992290;28;20345;-67
2023/12/15 00:49:43;;;;;;;;;;;6.10;99.90;;;;;;4972542;28;20005;-67
2023/12/15 00:52:11;;;;;;;;;;;6.20;99.90;;;;;;4972374;28;19926;-67
2023/12/15 00:54:39;;;;;;;;;;;6.30;99.90;;;;;;4972039;28;19926;-68
2023/12/15 00:57:08;;;;;;;;;;;6.30;99.90;;;;;;4972100;28;20416;-65
2023/12/15 00:59:35;;;;;;;;;;;6.40;99.90;;;;;;4972532;28;19926;-66
2023/12/15 01:02:05;;;;;;;;;;;6.60;99.90;;;;;;4972138;28;19932;-67
2023/12/15 01:04:33;;;;;;;;;;;6.80;99.90;;;;;;4974712;28;20003;-66
2023/12/15 01:07:01;;;;;;;;;;;6.90;99.90;;;;;;4978806;28;20365;-66
2023/12/15 01:09:29;;;;;;;;;;;7.00;99.90;;;;;;4976076;28;19930;-66
2023/12/15 01:11:56;;;;;;;;;;;7.10;99.90;;;;;;4976264;28;19926;-65
2023/12/15 01:14:26;;;;;;;;;;;7.20;99.90;;;;;;4999578;28;19925;-69
2023/12/15 01:16:53;;;;;;;;;;;7.40;99.90;;;;;;5002255;28;19932;-68
2023/12/15 01:19:21;;;;;;;;;;;7.40;99.90;;;;;;4976315;28;20270;-65
2023/12/15 01:21:49;;;;;;;;;;;7.40;99.90;;;;;;4976186;28;19926;-66
2023/12/15 01:24:17;;;;;;;;;;;7.40;99.90;;;;;;4975645;28;19953;-67
2023/12/15 01:26:45;;;;;;;;;;;7.50;99.90;;;;;;4975591;28;19926;-66
2023/12/15 01:29:12;;;;;;;;;;;7.50;99.90;;;;;;4975820;28;19926;-67
2023/12/15 01:31:41;;;;;;;;;;;7.50;99.90;;;;;;4975890;28;20543;-66
2023/12/15 01:34:09;;;;;;;;;;;7.50;99.90;;;;;;4975309;28;19933;-66
2023/12/15 01:36:37;;;;;;;;;;;7.40;99.90;;;;;;4975472;28;19926;-68
2023/12/15 01:39:05;;;;;;;;;;;7.40;99.90;;;;;;4975755;28;19930;-69
2023/12/15 01:41:33;;;;;;;;;;;7.30;99.90;;;;;;4975441;28;20536;-67
2023/12/15 01:44:00;;;;;;;;;;;7.20;99.90;;;;;;4993248;28;19941;-68
2023/12/15 01:46:28;;;;;;;;;;;7.20;99.90;;;;;;5008784;28;19929;-67
2023/12/15 01:48:58;;;;;;;;;;;7.20;99.90;;;;;;4975700;28;19934;-66
2023/12/15 01:51:26;;;;;;;;;;;7.30;99.90;;;;;;4975301;28;19930;-66
2023/12/15 01:53:54;;;;;;;;;;;7.30;99.90;;;;;;4975392;28;19930;-67
2023/12/15 01:56:22;;;;;;;;;;;7.40;99.90;;;;;;4975053;28;19933;-68
2023/12/15 01:58:50;;;;;;;;;;;7.40;99.90;;;;;;4975438;28;20409;-69
2023/12/15 02:01:17;;;;;;;;;;;7.50;99.90;;;;;;4983123;28;20575;-66
2023/12/15 02:03:45;;;;;;;;;;;7.50;99.90;;;;;;4974953;28;20010;-67
2023/12/15 02:06:14;;;;;;;;;;;7.60;99.90;;;;;;4978103;28;19925;-67
2023/12/15 02:08:43;;;;;;;;;;;7.50;99.90;;;;;;4975174;28;20397;-69
2023/12/15 02:11:11;;;;;;;;;;;7.50;99.90;;;;;;4975173;28;20385;-67
2023/12/15 02:13:39;;;;;;;;;;;7.60;99.90;;;;;;4986064;28;19925;-66
2023/12/15 02:16:07;;;;;;;;;;;7.60;99.90;;;;;;5013203;28;19934;-70
2023/12/15 02:18:35;;;;;;;;;;;7.60;99.90;;;;;;4975087;28;20058;-70
2023/12/15 02:21:03;;;;;;;;;;;7.60;99.90;;;;;;4975130;28;20215;-66
2023/12/15 02:23:32;;;;;;;;;;;7.50;99.90;;;;;;4974647;28;19976;-66
2023/12/15 02:26:00;;;;;;;;;;;7.50;99.90;;;;;;4974469;28;19933;-67
2023/12/15 02:28:28;;;;;;;;;;;7.40;99.90;;;;;;4974512;28;19933;-68
2023/12/15 02:30:55;;;;;;;;;;;7.30;99.90;;;;;;4974841;28;19926;-66
2023/12/15 02:33:23;;;;;;;;;;;7.40;99.90;;;;;;4974535;28;19926;-66
2023/12/15 02:35:51;;;;;;;;;;;7.40;99.90;;;;;;4974581;28;19930;-66
2023/12/15 02:38:19;;;;;;;;;;;7.30;99.90;;;;;;4974460;28;19953;-64
2023/12/15 02:40:48;;;;;;;;;;;7.50;99.90;;;;;;4974491;28;20394;-66
2023/12/15 02:43:16;;;;;;;;;;;7.60;99.90;;;;;;4978560;28;19926;-65
2023/12/15 02:45:43;;;;;;;;;;;7.60;99.90;;;;;;5005699;28;19925;-65
2023/12/15 02:48:11;;;;;;;;;;;7.60;99.90;;;;;;4981833;28;19926;-66
2023/12/15 02:50:39;;;;;;;;;;;7.50;99.90;;;;;;4974242;28;19977;-66
2023/12/15 02:53:07;;;;;;;;;;;7.50;99.90;;;;;;4982282;28;19926;-68
2023/12/15 02:55:35;;;;;;;;;;;7.50;99.90;;;;;;4974004;28;19957;-66
2023/12/15 02:58:04;;;;;;;;;;;7.50;99.90;;;;;;4974242;28;19926;-66
2023/12/15 03:00:32;;;;;;;;;;;7.50;99.90;;;;;;4974165;28;19926;-67
2023/12/15 03:02:59;;;;;;;;;;;7.40;99.90;;;;;;4973793;28;19933;-67
2023/12/15 03:05:27;;;;;;;;;;;7.40;99.90;;;;;;4973995;28;19926;-66
2023/12/15 03:07:55;;;;;;;;;;;7.40;99.90;;;;;;4978062;28;19930;-66
2023/12/15 03:10:23;;;;;;;;;;;7.40;99.90;;;;;;4974410;28;19977;-66
2023/12/15 03:12:50;;;;;;;;;;;7.40;99.90;;;;;;4975093;28;20309;-66
2023/12/15 03:15:20;;;;;;;;;;;7.40;99.90;;;;;;5000823;28;19926;-66
2023/12/15 03:17:47;;;;;;;;;;;7.30;99.90;;;;;;4988616;28;19927;-66
2023/12/15 03:20:15;;;;;;;;;;;7.20;99.90;;;;;;4973865;28;19926;-66
2023/12/15 03:22:44;;;;;;;;;;;7.10;99.90;;;;;;4973660;28;20389;-66
2023/12/15 03:25:12;;;;;;;;;;;7.10;99.90;;;;;;4973519;28;19941;-65
2023/12/15 03:27:40;;;;;;;;;;;7.00;99.90;;;;;;4972681;28;20292;-66
2023/12/15 03:30:08;;;;;;;;;;;6.90;99.90;;;;;;4973721;28;19926;-66
2023/12/15 03:32:37;;;;;;;;;;;7.00;99.90;;;;;;4973464;28;19926;-66
2023/12/15 03:35:05;;;;;;;;;;;7.10;99.90;;;;;;4973658;28;19926;-69
2023/12/15 03:37:33;;;;;;;;;;;6.80;99.90;;;;;;4973177;28;19973;-68
2023/12/15 03:40:03;;;;;;;;;;;6.80;99.90;;;;;;4973809;28;20008;-69
2023/12/15 03:42:30;;;;;;;;;;;6.80;99.90;;;;;;4973265;28;20009;-66
2023/12/15 03:44:58;;;;;;;;;;;6.90;99.90;;;;;;5004543;28;19929;-66
2023/12/15 03:47:26;;;;;;;;;;;7.10;99.90;;;;;;4994178;28;20385;-66
2023/12/15 03:49:56;;;;;;;;;;;7.20;99.90;;;;;;4973514;28;19933;-67
2023/12/15 03:52:24;;;;;;;;;;;7.30;99.90;;;;;;4973090;28;19930;-65
2023/12/15 03:54:52;;;;;;;;;;;7.40;99.90;;;;;;4973260;28;19933;-66
2023/12/15 03:57:22;;;;;;;;;;;7.40;99.90;;;;;;4972966;28;20331;-65
2023/12/15 03:59:49;;;;;;;;;;;7.30;99.90;;;;;;4973122;28;19926;-66
2023/12/15 04:02:20;;;;;;;;;;;6.90;99.90;;;;;;5007552;22;19926;-74
2023/12/15 04:04:48;;;;;;;;;;;6.80;99.90;;;;;;5031524;28;20299;-72
2023/12/15 04:07:17;;;;;;;;;;;6.50;99.90;;;;;;5026113;28;20380;-74
2023/12/15 04:09:45;;;;;;;;;;;6.60;99.90;;;;;;5031527;28;19929;-75
2023/12/15 04:12:12;;;;;;;;;;;6.60;99.90;;;;;;5031740;28;20354;-74
2023/12/15 04:14:40;;;;;;;;;;;6.80;99.90;;;;;;5025810;28;19933;-74
2023/12/15 04:17:08;;;;;;;;;;;6.90;99.90;;;;;;5015173;28;20015;-75
2023/12/15 04:19:36;;;;;;;;;;;7.10;99.90;;;;;;5031452;28;19968;-74
2023/12/15 04:22:04;;;;;;;;;;;7.20;99.90;;;;;;5020324;28;20442;-73
2023/12/15 04:24:33;;;;;;;;;;;7.30;99.90;;;;;;5031290;28;19932;-74
2023/12/15 04:27:01;;;;;;;;;;;7.30;99.90;;;;;;5030884;28;19972;-74
2023/12/15 04:29:29;;;;;;;;;;;7.20;99.90;;;;;;5031346;28;19929;-74
2023/12/15 04:31:57;;;;;;;;;;;7.20;99.90;;;;;;5031461;28;19931;-73
2023/12/15 04:34:24;;;;;;;;;;;7.30;99.90;;;;;;5031351;28;19932;-74
2023/12/15 04:36:52;;;;;;;;;;;7.40;99.90;;;;;;5031008;28;19987;-74
2023/12/15 04:39:20;;;;;;;;;;;7.40;99.90;;;;;;5031295;28;19929;-74
2023/12/15 04:41:49;;;;;;;;;;;7.30;99.90;;;;;;5022782;28;19929;-74
2023/12/15 04:44:17;;;;;;;;;;;7.10;99.90;;;;;;5018483;28;19926;-75
2023/12/15 04:46:44;;;;;;;;;;;7.00;99.90;;;;;;5005078;28;20020;-75
2023/12/15 04:49:12;;;;;;;;;;;7.00;99.90;;;;;;5023022;28;19932;-74
2023/12/15 04:51:40;;;;;;;;;;;7.10;99.90;;;;;;5030901;28;19941;-77
2023/12/15 04:54:08;;;;;;;;;;;7.20;99.90;;;;;;5007044;28;20419;-70
2023/12/15 04:56:36;;;;;;;;;;;7.20;99.90;;;;;;5002483;28;19930;-69
2023/12/15 04:59:05;;;;;;;;;;;7.20;99.90;;;;;;5000951;28;19956;-70
2023/12/15 05:01:33;;;;;;;;;;;6.80;99.90;;;;;;4998351;28;19940;-69
2023/12/15 05:04:01;;;;;;;;;;;6.40;99.90;;;;;;4998651;28;19933;-71
2023/12/15 05:06:30;;;;;;;;;;;6.20;99.90;;;;;;4998459;28;19933;-70
2023/12/15 05:08:57;;;;;;;;;;;6.10;99.90;;;;;;4999510;28;20423;-70
2023/12/15 05:11:26;;;;;;;;;;;6.00;99.90;;;;;;4999287;28;19933;-69
2023/12/15 05:13:54;;;;;;;;;;;5.90;99.90;;;;;;4999616;28;19933;-70
2023/12/15 05:16:23;;;;;;;;;;;5.80;99.90;;;;;;4998422;28;20028;-70
2023/12/15 05:18:51;;;;;;;;;;;5.70;99.90;;;;;;4999106;28;20473;-70
2023/12/15 05:21:19;;;;;;;;;;;5.70;99.90;;;;;;4998724;28;19933;-69
2023/12/15 05:23:46;;;;;;;;;;;5.70;99.90;;;;;;4998832;28;19925;-70
2023/12/15 05:26:14;;;;;;;;;;;5.60;99.90;;;;;;4998994;28;19959;-69
2023/12/15 05:28:44;;;;;;;;;;;5.60;99.90;;;;;;4999104;28;19965;-72
2023/12/15 05:31:12;;;;;;;;;;;5.50;99.90;;;;;;4999604;28;19940;-70
2023/12/15 05:33:41;;;;;;;;;;;5.50;99.90;;;;;;4998420;28;19936;-72
2023/12/15 05:36:16;;;;;;;;;;;5.40;99.90;;;;;;4999587;28;19933;-70
2023/12/15 05:38:44;;;;;;;;;;;5.40;99.90;;;;;;4999069;28;19926;-71
2023/12/15 05:41:12;;;;;;;;;;;5.40;99.90;;;;;;4999323;28;20017;-72
2023/12/15 05:43:40;;;;;;;;;;;5.40;99.90;;;;;;4981347;28;19936;-70
2023/12/15 05:46:08;;;;;;;;;;;5.40;99.90;;;;;;4999151;28;19934;-69
2023/12/15 05:48:36;;;;;;;;;;;5.40;99.90;;;;;;4998423;28;20047;-71
2023/12/15 05:51:07;;;;;;;;;;;5.30;99.90;;;;;;5000763;28;20609;-71
2023/12/15 05:53:35;;;;;;;;;;;5.40;99.90;;;;;;5001739;28;19937;-70
2023/12/15 05:56:21;;;;;;;;;;;5.50;99.90;;;;;;5002229;28;20068;-71
2023/12/15 05:58:49;;;;;;;;;;;5.40;99.90;;;;;;5001589;28;19933;-72
2023/12/15 06:01:17;;;;;;;;;;;5.40;99.90;;;;;;5003155;28;20313;-70
2023/12/15 06:03:45;;;;;;;;;;;5.50;99.90;;;;;;5002794;28;19933;-72
2023/12/15 06:06:14;;;;;;;;;;;5.40;99.90;;;;;;5002862;28;19930;-70
2023/12/15 06:08:42;;;;;;;;;;;5.50;99.90;;;;;;5002879;28;19933;-72
2023/12/15 06:11:10;;;;;;;;;;;5.30;99.90;;;;;;5002970;28;20392;-70
2023/12/15 06:13:39;;;;;;;;;;;5.30;99.90;;;;;;5002604;28;20480;-70
2023/12/15 06:16:07;;;;;;;;;;;5.30;99.90;;;;;;5003081;28;19980;-71
2023/12/15 06:18:35;;;;;;;;;;;5.40;99.90;;;;;;5002678;28;19933;-72
2023/12/15 06:21:03;;;;;;;;;;;5.30;99.90;;;;;;5001963;28;20577;-70
2023/12/15 06:23:32;;;;;;;;;;;5.30;99.90;;;;;;5002151;28;19941;-72
2023/12/15 06:26:00;;;;;;;;;;;5.30;99.90;;;;;;5007006;28;20008;-71
2023/12/15 06:28:27;;;;;;;;;;;5.30;99.90;;;;;;5010528;28;19925;-71
2023/12/15 06:30:55;;;;;;;;;;;5.30;99.90;;;;;;5011390;28;20297;-71
2023/12/15 06:33:23;;;;;;;;;;;5.30;99.90;;;;;;5025097;28;19952;-70
2023/12/15 06:35:51;;;;;;;;;;;5.20;99.90;;;;;;5031553;28;19928;-69
2023/12/15 06:38:19;;;;;;;;;;;5.30;99.90;;;;;;5033118;28;19941;-70
2023/12/15 06:40:48;;;;;;;;;;;5.30;99.90;;;;;;5033190;28;19932;-70
2023/12/15 06:43:16;;;;;;;;;;;5.20;99.90;;;;;;5029091;28;20324;-70
2023/12/15 06:45:43;;;;;;;;;;;5.30;99.90;;;;;;5012448;28;19925;-70
2023/12/15 06:48:11;;;;;;;;;;;5.30;99.90;;;;;;5018969;28;19925;-71
2023/12/15 06:50:39;;;;;;;;;;;5.30;99.90;;;;;;5033181;28;20514;-69
2023/12/15 06:53:07;;;;;;;;;;;5.30;99.90;;;;;;5033095;28;19924;-70
2023/12/15 06:55:35;;;;;;;;;;;5.20;99.90;;;;;;5033181;28;20019;-70
2023/12/15 06:58:04;;;;;;;;;;;5.10;99.90;;;;;;5032461;28;20197;-69
2023/12/15 07:00:33;;;;;;;;;;;5.10;99.90;;;;;;5032775;28;20284;-70
2023/12/15 07:03:00;;;;;;;;;;;5.00;99.90;;;;;;5031638;28;20395;-70
2023/12/15 07:05:28;;;;;;;;;;;4.90;99.90;;;;;;5032861;28;19929;-69
2023/12/15 07:07:56;;;;;;;;;;;4.90;99.90;;;;;;5024116;28;19920;-70
2023/12/15 07:10:24;;;;;;;;;;;4.90;99.90;;;;;;5033110;28;20434;-69
2023/12/15 07:12:52;;;;;;;;;;;4.90;99.90;;;;;;5031188;28;19921;-71
2023/12/15 07:15:21;;;;;;;;;;;4.80;99.90;;;;;;4999494;28;19928;-69
2023/12/15 07:17:49;;;;;;;;;;;4.80;99.90;;;;;;5001593;28;19928;-70
2023/12/15 07:20:17;;;;;;;;;;;4.90;99.90;;;;;;5032681;28;19931;-70
2023/12/15 07:22:45;;;;;;;;;;;4.90;99.90;;;;;;5031804;28;20376;-70
2023/12/15 07:25:12;;;;;;;;;;;4.80;99.90;;;;;;5025374;28;19991;-71
2023/12/15 07:27:41;;;;;;;;;;;4.90;99.90;;;;;;5032203;28;20379;-70
2023/12/15 07:30:09;;;;;;;;;;;4.90;99.90;;;;;;5016613;28;19928;-70
2023/12/15 07:32:38;;;;;;;;;;;4.90;99.90;;;;;;5032325;28;19921;-70
2023/12/15 07:35:07;;;;;;;;;;;4.80;99.90;;;;;;5032592;28;19921;-69
2023/12/15 07:37:55;;;;;;;;;;;4.80;99.90;;;;;;5031795;28;20384;-70
2023/12/15 07:40:23;;;;;;;;;;;4.70;99.90;;;;;;5032367;28;19920;-70
2023/12/15 07:42:51;;;;;;;;;;;4.70;99.90;;;;;;5030741;28;19921;-68
2023/12/15 07:45:18;;;;;;;;;;;4.70;99.90;;;;;;5007457;28;20408;-70
2023/12/15 07:47:47;;;;;;;;;;;4.80;99.90;;;;;;5009224;28;19925;-70
2023/12/15 07:50:15;;;;;;;;;;;4.80;99.90;;;;;;5032405;28;19921;-70
2023/12/15 07:52:43;;;;;;;;;;;4.90;99.90;;;;;;5031836;28;19921;-74
2023/12/15 07:55:11;;;;;;;;;;;5.00;99.90;;;;;;5031976;28;19928;-70
2023/12/15 07:57:39;;;;;;;;;;;5.10;99.90;;;;;;5031609;28;19925;-70
2023/12/15 08:00:11;;;;;;;;;;;5.10;99.90;;;;;;5031710;28;19929;-70
2023/12/15 08:02:38;;;;;;;;;;;5.10;99.90;;;;;;5031617;28;19921;-70
2023/12/15 08:05:09;;;;;;;;;;;5.10;99.90;;;;;;5031576;28;20273;-71
2023/12/15 08:07:37;;;;;;;;;;;5.20;99.90;;;;;;5031506;28;19992;-69
2023/12/15 08:10:05;;;;;;;;;;;5.20;99.90;;;;;;5031355;28;19935;-71
2023/12/15 08:12:33;;;;;;;;;;;5.30;99.90;;;;;;5031357;28;20004;-71
2023/12/15 08:15:01;;;;;;;;;;;5.30;99.90;;;;;;5010524;28;20399;-69
2023/12/15 08:17:28;;;;;;;;;;;5.30;99.90;;;;;;5020015;28;19929;-69
2023/12/15 08:19:57;;;;;;;;;;;5.30;99.90;;;;;;5031414;28;19924;-69
2023/12/15 08:22:26;;;;;;;;;;;5.30;99.90;;;;;;5031403;28;19988;-69
2023/12/15 08:24:54;;;;;;;;;;;5.30;99.90;;;;;;5031319;28;19924;-69
2023/12/15 08:27:21;;;;;;;;;;;5.30;99.90;;;;;;5026405;28;19921;-69
2023/12/15 08:29:50;;;;;;;;;;;5.20;99.90;;;;;;5028123;28;19921;-69
2023/12/15 08:32:18;;;;;;;;;;;5.20;99.90;;;;;;5031364;28;19925;-69
2023/12/15 08:34:46;;;;;;;;;;;5.20;99.90;;;;;;5031345;28;19924;-69
2023/12/15 08:37:14;;;;;;;;;;;5.10;99.90;;;;;;5015186;28;19950;-69
2023/12/15 08:39:44;;;;;;;;;;;5.10;99.90;;;;;;5031310;28;19921;-69
2023/12/15 08:42:11;;;;;;;;;;;5.10;99.90;;;;;;5031002;28;19924;-69
2023/12/15 08:44:39;;;;;;;;;;;5.10;99.90;;;;;;5007264;28;20001;-69
2023/12/15 08:47:09;;;;;;;;;;;5.10;99.90;;;;;;5013865;28;19921;-69
2023/12/15 08:49:37;;;;;;;;;;;5.10;99.90;;;;;;5031084;28;19928;-70
2023/12/15 08:52:05;;;;;;;;;;;5.10;99.90;;;;;;5030969;28;19967;-69
2023/12/15 08:54:33;;;;;;;;;;;5.20;99.90;;;;;;5031238;28;19975;-69
2023/12/15 08:57:02;;;;;;;;;;;5.30;99.90;;;;;;5030652;28;20016;-68
2023/12/15 08:59:30;;;;;;;;;;;5.40;99.90;;;;;;5031204;28;19928;-69
2023/12/15 09:01:58;;;;;;;;;;;5.60;99.90;;;;;;5030459;28;19921;-69
2023/12/15 09:04:26;;;;;;;;;;;5.90;99.90;;;;;;5031136;28;19991;-69
2023/12/15 09:06:54;;;;;;;;;;;6.30;99.90;;;;;;5030787;28;19928;-69
2023/12/15 09:09:23;;;;;;;;;;;6.50;99.90;;;;;;5031140;28;20400;-69
2023/12/15 09:11:52;;;;;;;;;;;6.50;99.90;;;;;;5030891;28;19979;-68
2023/12/15 09:14:23;;;;;;;;;;;6.70;99.90;;;;;;5013807;28;19929;-72
2023/12/15 09:16:51;;;;;;;;;;;7.10;99.90;;;;;;5007761;28;19924;-72
2023/12/15 09:19:18;;;;;;;;;;;7.20;99.90;;;;;;5030404;28;19920;-72
2023/12/15 09:21:47;;;;;;;;;;;7.20;99.90;;;;;;5030611;28;19921;-72
2023/12/15 09:24:15;;;;;;;;;;;7.10;99.90;;;;;;5030464;28;19921;-72
2023/12/15 09:26:43;;;;;;;;;;;7.10;99.90;;;;;;5033819;28;19928;-72
2023/12/15 09:29:11;;;;;;;;;;;7.00;99.90;;;;;;5025437;28;20411;-72
2023/12/15 09:31:40;;;;;;;;;;;6.80;99.90;;;;;;5028024;28;20020;-70
2023/12/15 09:34:08;;;;;;;;;;;6.80;99.90;;;;;;5032788;28;19928;-69
2023/12/15 09:36:36;;;;;;;;;;;6.70;99.90;;;;;;5034092;28;19947;-69
2023/12/15 09:39:04;;;;;;;;;;;6.70;99.90;;;;;;5025748;28;20368;-69
2023/12/15 09:41:32;;;;;;;;;;;6.70;99.90;;;;;;5034053;28;20424;-69
2023/12/15 09:44:01;;;;;;;;;;;6.70;99.90;;;;;;5014208;28;19925;-73
2023/12/15 09:46:30;;;;;;;;;;;6.70;99.90;;;;;;5012100;28;20400;-69
2023/12/15 09:49:00;;;;;;;;;;;6.50;99.90;;;;;;5033774;28;20380;-71
2023/12/15 09:51:28;;;;;;;;;;;6.40;99.90;;;;;;5033964;28;19921;-69
2023/12/15 09:53:56;;;;;;;;;;;6.30;99.90;;;;;;5025351;28;19921;-68
2023/12/15 09:56:23;;;;;;;;;;;6.30;99.90;;;;;;5033256;28;19925;-69
2023/12/15 09:58:53;;;;;;;;;;;6.40;99.90;;;;;;5033404;28;19921;-69
2023/12/15 10:01:21;;;;;;;;;;;6.50;99.90;;;;;;5018012;28;19921;-72
2023/12/15 10:03:49;;;;;;;;;;;6.50;99.90;;;;;;5034124;28;19967;-72
2023/12/15 10:06:19;;;;;;;;;;;6.50;99.90;;;;;;5032889;28;19964;-70
2023/12/15 10:08:47;;;;;;;;;;;6.50;99.90;;;;;;5033747;28;19931;-69
2023/12/15 10:11:32;;;;;;;;;;;6.40;99.90;;;;;;5019656;28;19948;-69
2023/12/15 10:14:03;;;;;;;;;;;6.40;99.90;;;;;;5014588;28;20082;-69
2023/12/15 10:16:31;;;;;;;;;;;6.40;99.90;;;;;;5018051;28;20007;-69
2023/12/15 10:19:00;;;;;;;;;;;6.40;99.90;;;;;;5024759;28;19925;-69
2023/12/15 10:21:30;;;;;;;;;;;6.30;99.90;;;;;;5033395;28;20285;-72
2023/12/15 10:23:58;;;;;;;;;;;6.40;99.90;;;;;;5032998;28;19920;-70
2023/12/15 10:26:27;;;;;;;;;;;6.30;99.90;;;;;;5032878;28;20016;-71
2023/12/15 10:28:56;;;;;;;;;;;6.40;99.90;;;;;;5032737;28;20521;-69
2023/12/15 10:31:26;;;;;;;;;;;6.50;99.90;;;;;;5025251;28;19920;-71
2023/12/15 10:33:54;;;;;;;;;;;6.50;99.90;;;;;;5033027;28;20296;-69
2023/12/15 10:36:22;;;;;;;;;;;6.50;99.90;;;;;;5032221;28;20380;-69
2023/12/15 10:38:53;;;;;;;;;;;6.50;99.90;;;;;;5025886;28;19921;-69
2023/12/15 10:41:21;;;;;;;;;;;6.40;99.90;;;;;;5032507;28;19927;-69
2023/12/15 10:43:50;;;;;;;;;;;6.40;99.90;;;;;;5010766;28;19990;-73
2023/12/15 10:46:21;;;;;;;;;;;6.50;99.90;;;;;;4997865;28;19925;-69
2023/12/15 10:48:49;;;;;;;;;;;6.50;99.90;;;;;;5032678;28;19921;-69
2023/12/15 10:51:17;;;;;;;;;;;6.50;99.90;;;;;;5032688;28;19921;-69
2023/12/15 10:53:45;;;;;;;;;;;6.50;99.90;;;;;;5032763;28;19921;-69
2023/12/15 10:56:14;;;;;;;;;;;6.50;99.90;;;;;;5032578;28;20388;-69
2023/12/15 10:58:42;;;;;;;;;;;6.50;99.90;;;;;;5031978;28;19921;-70
2023/12/15 11:01:10;;;;;;;;;;;6.60;99.90;;;;;;5032158;28;19924;-69
2023/12/15 11:03:38;;;;;;;;;;;6.60;99.90;;;;;;5032309;28;20028;-71
2023/12/15 11:06:06;;;;;;;;;;;6.50;99.90;;;;;;5032396;28;19975;-70
2023/12/15 11:08:34;;;;;;;;;;;6.50;99.90;;;;;;5031977;28;19932;-70
2023/12/15 11:11:04;;;;;;;;;;;6.60;99.90;;;;;;5031996;28;19921;-70
2023/12/15 11:13:52;;;;;;;;;;;6.70;99.90;;;;;;5021333;28;19961;-69
2023/12/15 11:16:23;;;;;;;7.60;6.85;;;6.80;99.90;;;;;;4996901;28;20283;-69
2023/12/15 11:18:52;;;;;;;12.18;6.78;;;6.90;99.90;;;;;;5031859;28;20351;-70
2023/12/15 11:21:20;;;;;;;6.35;5.75;;;7.00;99.90;;;;;;5031549;28;20296;-69
2023/12/15 11:23:55;;;;;;;7.30;6.60;;;7.00;99.90;;;;;;5031266;28;20283;-70
2023/12/15 11:26:28;;;;;;;8.25;6.32;;;7.10;99.90;;;;;;5030991;28;20193;-69
2023/12/15 11:29:08;;;;;;;11.85;6.88;;;7.20;99.90;;;;;;5031618;28;20287;-69
2023/12/15 11:31:40;;;;;;;8.82;7.40;;;7.30;99.90;;;;;;5017630;28;20235;-69
2023/12/15 11:34:09;;;;;;;8.43;5.88;;;7.30;99.90;;;;;;5031310;28;20232;-70
2023/12/15 11:36:42;;;;;;;11.23;6.93;;;7.40;99.90;;;;;;5030966;28;20271;-69
2023/12/15 11:39:12;;;;;;;8.55;6.80;;;7.40;99.90;;;;;;5031029;28;20208;-71
2023/12/15 11:41:42;;;;;;;8.52;6.28;;;7.40;99.90;;;;;;5031672;28;20212;-69
2023/12/15 11:44:12;;;;;;;6.88;5.70;;;7.50;99.90;;;;;;5017829;28;20291;-72
2023/12/15 11:46:41;;;;;;;9.10;6.38;;;7.50;99.90;;;;;;5000770;28;20236;-69
2023/12/15 11:49:09;;;;;;;6.63;5.60;;;7.60;99.90;;;;;;5022346;28;20215;-71
2023/12/15 11:51:37;;;;;;;15.77;6.70;;;7.70;99.90;;;;;;5031110;28;20217;-70
2023/12/15 11:54:06;;;;;;;8.55;6.50;;;7.60;99.90;;;;;;5030685;28;20225;-69
2023/12/15 11:56:34;;;;;;;7.03;4.85;;;7.70;99.90;;;;;;5030573;28;20593;-72
2023/12/15 11:59:03;;;;;;;10.02;5.70;;;7.80;99.90;;;;;;5030710;28;20208;-72
2023/12/15 12:01:35;;;;;;;9.35;6.65;;;7.90;99.90;;;;;;5030896;28;20300;-72
2023/12/15 12:04:04;;;;;;;10.38;6.18;;;7.90;99.90;;;;;;5030636;28;20243;-72
2023/12/15 12:06:33;;;;;;;11.45;7.35;;;7.80;99.90;;;;;;5030514;28;20632;-72
2023/12/15 12:09:01;;;;;;;8.25;5.93;;;7.90;99.90;;;;;;5030797;28;20685;-72
2023/12/15 12:11:30;;;;;;;7.47;6.30;;;7.80;99.90;;;;;;5030346;28;20233;-72
2023/12/15 12:14:00;;;;;;;6.78;5.18;;;7.80;99.90;;;;;;5013001;28;20320;-73
2023/12/15 12:16:29;;;;;;;6.50;5.80;;;7.80;99.90;;;;;;5004715;28;20262;-75
2023/12/15 12:18:58;;;;;;;7.25;5.30;;;7.70;99.90;;;;;;5030703;28;20204;-67
2023/12/15 12:21:27;;;;;;;8.25;6.45;;;7.70;99.90;;;;;;5030538;28;20254;-70
2023/12/15 12:23:55;;;;;;;7.57;5.82;;;7.70;99.90;;;;;;5030448;28;20228;-70
2023/12/15 12:26:26;;;;;;;6.85;5.40;;;7.70;99.90;;;;;;5029851;28;20654;-68
2023/12/15 12:28:54;;;;;;;7.28;5.55;;;7.80;99.90;;;;;;5030287;28;20209;-69
2023/12/15 12:31:24;;;;;;;7.40;5.70;;;7.80;99.90;;;;;;5030085;28;20295;-69
2023/12/15 12:33:52;;;;;;;6.72;5.15;;;7.90;99.90;;;;;;5030159;28;20231;-69
2023/12/15 12:36:21;;;;;;;9.90;5.97;;;7.90;99.90;;;;;;5030195;28;20219;-69
2023/12/15 12:38:49;;;;;;;5.97;5.00;;;8.00;99.90;;;;;;5030222;28;20212;-71
2023/12/15 12:41:17;;;;;;;7.75;4.80;;;8.00;99.90;;;;;;5030257;28;20197;-70
2023/12/15 12:43:45;;;;;;;6.47;4.57;;;8.10;99.90;;;;;;5021697;28;20259;-71
2023/12/15 12:46:13;;;;;;;6.65;5.25;;;8.00;99.90;;;;;;4994663;28;20205;-69
2023/12/15 12:48:44;;;;;;;5.47;4.95;;;8.10;99.90;;;;;;5030230;28;20237;-69
2023/12/15 12:51:12;;;;;;;4.60;4.15;;;8.10;99.90;;;;;;5029954;28;20211;-69
2023/12/15 12:53:41;;;;;;;6.22;5.15;;;8.00;99.90;;;;;;5030161;28;20224;-71
2023/12/15 12:56:10;;;;;;;7.05;5.15;;;8.10;99.90;;;;;;5030228;28;20204;-70
2023/12/15 12:58:39;;;;;;;6.22;5.40;;;8.00;99.90;;;;;;5014244;28;20248;-70
2023/12/15 13:01:07;;;;;;;7.13;5.30;;;8.10;99.90;;;;;;5033531;28;20228;-70
2023/12/15 13:03:36;;;;;;;5.50;4.68;;;8.10;99.90;;;;;;5033687;28;20236;-70
2023/12/15 13:06:04;;;;;;;6.30;5.20;;;8.00;99.90;;;;;;5034387;28;20207;-70
2023/12/15 13:08:32;;;;;;;6.10;5.32;;;8.00;99.90;;;;;;5033321;28;20274;-70
2023/12/15 13:11:02;;;;;;;5.53;4.72;;;7.90;99.90;;;;;;5034134;28;20200;-70
2023/12/15 13:13:30;;;;;;;7.40;5.75;;;8.10;99.90;;;;;;5027153;28;20307;-71
2023/12/15 13:15:59;;;;;;;5.70;4.63;;;8.10;99.90;;;;;;4999761;28;20210;-70
2023/12/15 13:18:27;;;;;;;6.65;5.40;;;8.10;99.90;;;;;;5030083;28;20211;-71
2023/12/15 13:20:56;;;;;;;5.75;4.57;;;8.10;99.90;;;;;;5033970;28;20215;-75
2023/12/15 13:23:24;;;;;;;6.40;5.20;;;8.20;99.90;;;;;;5033559;28;20221;-73
2023/12/15 13:25:52;;;;;;;5.13;4.50;;;8.20;99.90;;;;;;5034082;28;20262;-73
2023/12/15 13:28:24;;;;;;;9.52;4.80;;;8.20;99.90;;;;;;5032801;28;20215;-73
2023/12/15 13:30:55;;;;;;;5.55;4.40;;;8.20;99.90;;;;;;5033681;28;20211;-70
2023/12/15 13:33:23;;;;;;;4.90;4.40;;;8.20;99.90;;;;;;5033776;28;20220;-70
2023/12/15 13:35:51;;;;;;;6.03;4.78;;;8.20;99.90;;;;;;5028473;28;20233;-70
2023/12/15 13:38:36;;;;;;;4.53;4.10;;;8.20;99.90;;;;;;5032522;28;20307;-71
2023/12/15 13:41:04;;;;;;;5.13;4.55;;;8.10;99.90;;;;;;5033529;28;20266;-70
2023/12/15 13:43:34;;;;;;;5.22;4.32;;;8.10;99.90;;;;;;5026199;28;20670;-70
2023/12/15 13:46:02;;;;;;;4.88;4.45;;;8.10;99.90;;;;;;5011692;28;20215;-70
2023/12/15 13:48:35;;;;;;;8.48;5.22;;;8.10;99.90;;;;;;5032808;28;20931;-70
2023/12/15 13:51:04;;;;;;;5.70;4.30;;;8.10;99.90;;;;;;5033508;28;20207;-70
2023/12/15 13:53:32;;;;;;;4.75;3.97;;;8.00;99.90;;;;;;5032768;28;20236;-70
2023/12/15 13:56:00;;;;;;;5.68;4.78;;;8.10;99.90;;;;;;5033142;28;20664;-70
2023/12/15 13:58:28;;;;;;;4.63;4.22;;;8.10;99.90;;;;;;5030806;28;20196;-71
2023/12/15 14:00:58;;;;;;;6.45;4.97;;;8.10;99.90;;;;;;5026829;28;20200;-71
2023/12/15 14:03:26;;;;;;;6.68;3.80;;;8.10;99.90;;;;;;5033103;28;20754;-72
2023/12/15 14:05:54;;;;;;;6.95;4.38;;;8.00;99.90;;;;;;5034193;28;20255;-70
2023/12/15 14:08:22;;;;;;;5.72;4.30;;;8.10;99.90;;;;;;5032238;28;20219;-71
2023/12/15 14:10:50;;;;;;;6.53;4.85;;;8.10;99.90;;;;;;5032553;28;20212;-71
2023/12/15 14:13:18;;;;;;;5.90;4.50;;;8.10;99.90;;;;;;5027040;28;20213;-71
2023/12/15 14:15:46;;;;;;;6.93;6.22;;;8.10;99.90;;;;;;4993409;28;20202;-71